sensor_id;sensor_type;location;lat;lon;timestamp;pressure;altitude;pressure_sealevel;temperature;humidity
74975;BME280;64061;50.836;19.138;2022-12-22T00:01:31;98178.75;;;20.47;55.83
74975;BME280;64061;50.836;19.138;2022-12-22T00:04:54;98177.34;;;20.49;55.60
74975;BME280;64061;50.836;19.138;2022-12-22T00:08:15;98178.97;;;20.50;55.89
74975;BME280;64061;50.836;19.138;2022-12-22T00:11:36;98187.19;;;20.50;56.17
74975;BME280;64061;50.836;19.138;2022-12-22T00:14:57;98182.81;;;20.49;56.36
74975;BME280;64061;50.836;19.138;2022-12-22T00:18:19;98171.91;;;20.44;56.35
74975;BME280;64061;50.836;19.138;2022-12-22T00:21:42;98173.03;;;20.43;56.59
74975;BME280;64061;50.836;19.138;2022-12-22T00:25:04;98167.56;;;20.43;56.39
74975;BME280;64061;50.836;19.138;2022-12-22T00:28:25;98174.16;;;20.42;55.94
74975;BME280;64061;50.836;19.138;2022-12-22T00:31:48;98174.16;;;20.42;56.96
74975;BME280;64061;50.836;19.138;2022-12-22T00:35:13;98166.44;;;20.44;56.80
74975;BME280;64061;50.836;19.138;2022-12-22T00:38:36;98166.75;;;20.43;57.08
74975;BME280;64061;50.836;19.138;2022-12-22T00:41:56;98164.31;;;20.41;57.02
74975;BME280;64061;50.836;19.138;2022-12-22T00:45:18;98170.59;;;20.42;57.36
74975;BME280;64061;50.836;19.138;2022-12-22T00:48:40;98167.03;;;20.41;57.16
74975;BME280;64061;50.836;19.138;2022-12-22T00:52:03;98164.59;;;20.40;57.74
74975;BME280;64061;50.836;19.138;2022-12-22T00:55:29;98178.00;;;20.41;57.46
74975;BME280;64061;50.836;19.138;2022-12-22T00:58:55;98178.28;;;20.40;57.27
74975;BME280;64061;50.836;19.138;2022-12-22T01:02:17;98163.78;;;20.39;57.58
74975;BME280;64061;50.836;19.138;2022-12-22T01:05:38;98166.50;;;20.39;58.04
74975;BME280;64061;50.836;19.138;2022-12-22T01:08:59;98172.00;;;20.39;58.15
74975;BME280;64061;50.836;19.138;2022-12-22T01:12:24;98178.00;;;20.41;57.97
74975;BME280;64061;50.836;19.138;2022-12-22T01:15:47;98172.00;;;20.39;58.24
74975;BME280;64061;50.836;19.138;2022-12-22T01:19:08;98172.00;;;20.39;58.06
74975;BME280;64061;50.836;19.138;2022-12-22T01:22:29;98173.63;;;20.40;58.30
74975;BME280;64061;50.836;19.138;2022-12-22T01:25:51;98163.47;;;20.41;57.69
74975;BME280;64061;50.836;19.138;2022-12-22T01:29:13;98162.66;;;20.40;58.59
74975;BME280;64061;50.836;19.138;2022-12-22T01:32:35;98162.75;;;20.35;58.62
74975;BME280;64061;50.836;19.138;2022-12-22T01:35:56;98146.38;;;20.30;58.76
74975;BME280;64061;50.836;19.138;2022-12-22T01:39:17;98137.13;;;20.26;58.61
74975;BME280;64061;50.836;19.138;2022-12-22T01:42:38;98139.66;;;20.22;58.59
74975;BME280;64061;50.836;19.138;2022-12-22T01:46:20;98139.34;;;20.24;57.89
74975;BME280;64061;50.836;19.138;2022-12-22T01:49:43;98147.44;;;20.15;58.41
74975;BME280;64061;50.836;19.138;2022-12-22T01:53:08;98132.63;;;20.16;57.71
74975;BME280;64061;50.836;19.138;2022-12-22T01:56:34;98141.44;;;20.13;58.31
74975;BME280;64061;50.836;19.138;2022-12-22T01:59:55;98139.00;;;20.12;57.41
74975;BME280;64061;50.836;19.138;2022-12-22T02:03:19;98142.53;;;20.12;57.44
74975;BME280;64061;50.836;19.138;2022-12-22T02:06:44;98154.59;;;20.11;57.40
74975;BME280;64061;50.836;19.138;2022-12-22T02:10:27;98155.13;;;20.13;56.75
74975;BME280;64061;50.836;19.138;2022-12-22T02:14:09;98150.56;;;20.09;56.82
74975;BME280;64061;50.836;19.138;2022-12-22T02:17:47;98156.34;;;20.07;56.88
74975;BME280;64061;50.836;19.138;2022-12-22T02:21:21;98160.47;;;20.05;56.77
74975;BME280;64061;50.836;19.138;2022-12-22T02:24:49;98150.63;;;20.04;57.15
74975;BME280;64061;50.836;19.138;2022-12-22T02:28:21;98161.88;;;20.02;56.80
74975;BME280;64061;50.836;19.138;2022-12-22T02:31:43;98165.72;;;20.01;56.76
74975;BME280;64061;50.836;19.138;2022-12-22T02:35:10;98165.13;;;20.04;57.03
74975;BME280;64061;50.836;19.138;2022-12-22T02:38:39;98178.81;;;20.04;56.62
74975;BME280;64061;50.836;19.138;2022-12-22T02:42:15;98168.47;;;20.01;56.81
74975;BME280;64061;50.836;19.138;2022-12-22T02:45:54;98160.78;;;20.03;56.89
74975;BME280;64061;50.836;19.138;2022-12-22T02:49:27;98166.03;;;20.00;57.22
74975;BME280;64061;50.836;19.138;2022-12-22T02:52:58;98151.81;;;19.98;56.96
74975;BME280;64061;50.836;19.138;2022-12-22T02:56:23;98151.81;;;19.98;56.95
74975;BME280;64061;50.836;19.138;2022-12-22T02:59:44;98154.53;;;19.98;56.67
74975;BME280;64061;50.836;19.138;2022-12-22T03:03:07;98153.44;;;19.99;56.61
74975;BME280;64061;50.836;19.138;2022-12-22T03:06:29;98148.56;;;19.96;56.53
74975;BME280;64061;50.836;19.138;2022-12-22T03:09:50;98149.69;;;19.95;56.54
74975;BME280;64061;50.836;19.138;2022-12-22T03:13:11;98150.78;;;19.93;56.64
74975;BME280;64061;50.836;19.138;2022-12-22T03:16:32;98153.53;;;19.93;56.87
74975;BME280;64061;50.836;19.138;2022-12-22T03:19:54;98167.22;;;19.93;56.55
74975;BME280;64061;50.836;19.138;2022-12-22T03:23:15;98159.31;;;19.92;56.85
74975;BME280;64061;50.836;19.138;2022-12-22T03:26:36;98159.59;;;19.90;56.94
74975;BME280;64061;50.836;19.138;2022-12-22T03:29:41;98149.97;;;19.93;56.77
74975;BME280;64061;50.836;19.138;2022-12-22T03:32:44;98143.69;;;19.92;56.77
74975;BME280;64061;50.836;19.138;2022-12-22T03:35:49;98137.09;;;19.93;56.96
74975;BME280;64061;50.836;19.138;2022-12-22T03:38:53;98141.25;;;19.91;56.63
74975;BME280;64061;50.836;19.138;2022-12-22T03:41:56;98134.97;;;19.90;56.85
74975;BME280;64061;50.836;19.138;2022-12-22T03:45:17;98139.91;;;19.88;56.45
74975;BME280;64061;50.836;19.138;2022-12-22T03:48:38;98125.69;;;19.86;56.77
74975;BME280;64061;50.836;19.138;2022-12-22T03:51:45;98131.13;;;19.91;56.31
74975;BME280;64061;50.836;19.138;2022-12-22T03:54:50;98125.41;;;19.88;56.62
74975;BME280;64061;50.836;19.138;2022-12-22T03:57:53;98128.97;;;19.88;56.61
74975;BME280;64061;50.836;19.138;2022-12-22T04:01:04;98131.13;;;19.91;56.11
74975;BME280;64061;50.836;19.138;2022-12-22T04:04:09;98122.97;;;19.86;56.53
74975;BME280;64061;50.836;19.138;2022-12-22T04:07:15;98115.28;;;19.88;56.17
74975;BME280;64061;50.836;19.138;2022-12-22T04:10:18;98113.66;;;19.87;56.41
74975;BME280;64061;50.836;19.138;2022-12-22T04:13:39;98112.63;;;19.83;56.63
74975;BME280;64061;50.836;19.138;2022-12-22T04:16:43;98114.22;;;19.84;56.51
74975;BME280;64061;50.836;19.138;2022-12-22T04:19:46;98109.91;;;19.83;56.66
74975;BME280;64061;50.836;19.138;2022-12-22T04:22:52;98104.09;;;19.85;56.38
74975;BME280;64061;50.836;19.138;2022-12-22T04:25:56;98101.97;;;19.82;56.46
74975;BME280;64061;50.836;19.138;2022-12-22T04:28:59;98103.91;;;19.81;56.55
74975;BME280;64061;50.836;19.138;2022-12-22T04:32:03;98092.97;;;19.81;56.29
74975;BME280;64061;50.836;19.138;2022-12-22T04:35:08;98078.47;;;19.81;57.09
74975;BME280;64061;50.836;19.138;2022-12-22T04:38:13;98094.06;;;19.80;56.32
74975;BME280;64061;50.836;19.138;2022-12-22T04:41:17;98099.84;;;19.79;56.83
74975;BME280;64061;50.836;19.138;2022-12-22T04:44:21;98096.28;;;19.78;56.54
74975;BME280;64061;50.836;19.138;2022-12-22T04:47:24;98087.25;;;19.78;56.75
74975;BME280;64061;50.836;19.138;2022-12-22T04:50:28;98098.50;;;19.76;56.72
74975;BME280;64061;50.836;19.138;2022-12-22T04:53:34;98094.34;;;19.79;56.56
74975;BME280;64061;50.836;19.138;2022-12-22T04:56:37;98098.50;;;19.76;56.77
74975;BME280;64061;50.836;19.138;2022-12-22T04:59:41;98094.13;;;19.75;56.22
74975;BME280;64061;50.836;19.138;2022-12-22T05:02:45;98085.09;;;19.75;56.40
74975;BME280;64061;50.836;19.138;2022-12-22T05:05:48;98076.09;;;19.74;56.37
74975;BME280;64061;50.836;19.138;2022-12-22T05:08:53;98074.97;;;19.75;56.38
74975;BME280;64061;50.836;19.138;2022-12-22T05:11:57;98076.09;;;19.74;56.91
74975;BME280;64061;50.836;19.138;2022-12-22T05:15:01;98061.28;;;19.75;56.48
74975;BME280;64061;50.836;19.138;2022-12-22T05:18:05;98054.19;;;19.74;56.65
74975;BME280;64061;50.836;19.138;2022-12-22T05:21:11;98066.75;;;19.75;56.74
74975;BME280;64061;50.836;19.138;2022-12-22T05:24:18;98068.97;;;19.73;56.49
74975;BME280;64061;50.836;19.138;2022-12-22T05:27:21;98079.09;;;19.73;56.76
74975;BME280;64061;50.836;19.138;2022-12-22T05:30:26;98071.72;;;19.73;56.83
74975;BME280;64061;50.836;19.138;2022-12-22T05:33:30;98074.16;;;19.75;56.83
74975;BME280;64061;50.836;19.138;2022-12-22T05:36:34;98078.53;;;19.76;56.99
74975;BME280;64061;50.836;19.138;2022-12-22T05:39:40;98073.88;;;19.76;56.90
74975;BME280;64061;50.836;19.138;2022-12-22T05:42:43;98068.97;;;19.73;57.15
74975;BME280;64061;50.836;19.138;2022-12-22T05:45:47;98066.25;;;19.73;57.04
74975;BME280;64061;50.836;19.138;2022-12-22T05:48:50;98063.50;;;19.73;56.57
74975;BME280;64061;50.836;19.138;2022-12-22T05:51:54;98064.91;;;19.71;57.29
74975;BME280;64061;50.836;19.138;2022-12-22T05:55:00;98075.56;;;19.72;56.64
74975;BME280;64061;50.836;19.138;2022-12-22T05:58:04;98065.72;;;19.71;57.10
74975;BME280;64061;50.836;19.138;2022-12-22T06:01:07;98055.59;;;19.72;57.08
74975;BME280;64061;50.836;19.138;2022-12-22T06:04:11;98054.78;;;19.71;57.16
74975;BME280;64061;50.836;19.138;2022-12-22T06:07:15;98051.56;;;19.69;56.53
74975;BME280;64061;50.836;19.138;2022-12-22T06:10:20;98048.50;;;19.71;56.73
74975;BME280;64061;50.836;19.138;2022-12-22T06:13:25;98035.94;;;19.70;56.80
74975;BME280;64061;50.836;19.138;2022-12-22T06:16:29;98032.41;;;19.69;57.04
74975;BME280;64061;50.836;19.138;2022-12-22T06:19:32;98037.88;;;19.69;56.59
74975;BME280;64061;50.836;19.138;2022-12-22T06:22:36;98044.44;;;19.68;56.46
74975;BME280;64061;50.836;19.138;2022-12-22T06:25:41;98047.72;;;19.70;56.44
74975;BME280;64061;50.836;19.138;2022-12-22T06:28:45;98052.66;;;19.68;56.43
74975;BME280;64061;50.836;19.138;2022-12-22T06:31:50;98041.41;;;19.70;56.10
74975;BME280;64061;50.836;19.138;2022-12-22T06:34:53;98041.09;;;19.71;56.47
74975;BME280;64061;50.836;19.138;2022-12-22T06:37:57;98058.84;;;19.74;55.93
74975;BME280;64061;50.836;19.138;2022-12-22T06:41:02;98052.50;;;19.78;56.06
74975;BME280;64061;50.836;19.138;2022-12-22T06:44:06;98046.44;;;19.81;55.75
74975;BME280;64061;50.836;19.138;2022-12-22T06:47:09;98034.84;;;19.84;55.80
74975;BME280;64061;50.836;19.138;2022-12-22T06:50:12;98046.03;;;19.88;55.41
74975;BME280;64061;50.836;19.138;2022-12-22T06:53:16;98038.03;;;19.91;55.42
74975;BME280;64061;50.836;19.138;2022-12-22T06:56:21;98039.09;;;19.96;55.13
74975;BME280;64061;50.836;19.138;2022-12-22T06:59:24;98032.50;;;19.97;55.20
74975;BME280;64061;50.836;19.138;2022-12-22T07:02:28;98027.50;;;19.99;55.20
74975;BME280;64061;50.836;19.138;2022-12-22T07:05:33;98032.38;;;20.02;54.90
74975;BME280;64061;50.836;19.138;2022-12-22T07:08:38;98026.31;;;20.05;55.06
74975;BME280;64061;50.836;19.138;2022-12-22T07:11:43;98033.13;;;20.07;55.25
74975;BME280;64061;50.836;19.138;2022-12-22T07:14:47;98038.31;;;20.09;54.34
74975;BME280;64061;50.836;19.138;2022-12-22T07:17:52;98026.72;;;20.12;54.48
74975;BME280;64061;50.836;19.138;2022-12-22T07:20:55;98036.56;;;20.13;54.35
74975;BME280;64061;50.836;19.138;2022-12-22T07:23:59;98036.28;;;20.14;54.23
74975;BME280;64061;50.836;19.138;2022-12-22T07:27:04;98029.91;;;20.19;54.06
74975;BME280;64061;50.836;19.138;2022-12-22T07:30:09;98029.59;;;20.20;54.19
74975;BME280;64061;50.836;19.138;2022-12-22T07:33:14;98030.41;;;20.21;54.18
74975;BME280;64061;50.836;19.138;2022-12-22T07:36:19;98028.19;;;20.23;54.12
74975;BME280;64061;50.836;19.138;2022-12-22T07:39:24;98019.66;;;20.24;54.06
74975;BME280;64061;50.836;19.138;2022-12-22T07:42:33;98021.56;;;20.24;53.87
74975;BME280;64061;50.836;19.138;2022-12-22T07:45:49;98024.94;;;20.21;54.17
74975;BME280;64061;50.836;19.138;2022-12-22T07:48:53;98011.25;;;20.21;53.81
74975;BME280;64061;50.836;19.138;2022-12-22T07:52:16;98018.13;;;20.18;53.96
74975;BME280;64061;50.836;19.138;2022-12-22T07:55:19;98015.09;;;20.20;53.91
74975;BME280;64061;50.836;19.138;2022-12-22T07:58:27;98015.09;;;20.20;54.04
74975;BME280;64061;50.836;19.138;2022-12-22T08:01:31;98014.59;;;20.18;54.27
74975;BME280;64061;50.836;19.138;2022-12-22T08:04:35;98013.78;;;20.17;53.82
74975;BME280;64061;50.836;19.138;2022-12-22T08:07:38;98008.59;;;20.16;54.06
74975;BME280;64061;50.836;19.138;2022-12-22T08:10:42;98005.03;;;20.15;53.95
74975;BME280;64061;50.836;19.138;2022-12-22T08:13:49;97996.53;;;20.17;54.02
74975;BME280;64061;50.836;19.138;2022-12-22T08:17:02;97994.91;;;20.16;54.77
74975;BME280;64061;50.836;19.138;2022-12-22T08:20:06;97995.41;;;20.18;54.94
74975;BME280;64061;50.836;19.138;2022-12-22T08:23:13;97998.66;;;20.20;54.86
74975;BME280;64061;50.836;19.138;2022-12-22T08:26:26;97991.44;;;20.24;55.30
74975;BME280;64061;50.836;19.138;2022-12-22T08:29:40;97986.69;;;20.29;55.30
74975;BME280;64061;50.836;19.138;2022-12-22T08:32:49;97992.69;;;20.32;56.28
74975;BME280;64061;50.836;19.138;2022-12-22T08:35:56;97994.63;;;20.31;56.22
74975;BME280;64061;50.836;19.138;2022-12-22T08:39:09;97997.56;;;20.35;56.15
74975;BME280;64061;50.836;19.138;2022-12-22T08:42:14;97989.09;;;20.36;56.92
74975;BME280;64061;50.836;19.138;2022-12-22T08:45:22;97991.41;;;20.43;57.66
74975;BME280;64061;50.836;19.138;2022-12-22T08:48:26;97990.69;;;20.51;58.57
74975;BME280;64061;50.836;19.138;2022-12-22T08:51:29;97978.53;;;20.57;59.29
74975;BME280;64061;50.836;19.138;2022-12-22T08:54:33;97964.91;;;20.66;59.10
74975;BME280;64061;50.836;19.138;2022-12-22T08:57:37;97957.69;;;20.70;58.96
74975;BME280;64061;50.836;19.138;2022-12-22T09:00:42;97953.75;;;20.76;60.33
74975;BME280;64061;50.836;19.138;2022-12-22T09:03:47;97956.97;;;20.78;61.36
74975;BME280;64061;50.836;19.138;2022-12-22T09:06:53;97958.50;;;20.84;61.69
74975;BME280;64061;50.836;19.138;2022-12-22T09:09:57;97950.78;;;20.86;62.01
74975;BME280;64061;50.836;19.138;2022-12-22T09:13:00;97949.66;;;20.87;62.19
74975;BME280;64061;50.836;19.138;2022-12-22T09:16:06;97938.91;;;20.90;62.39
74975;BME280;64061;50.836;19.138;2022-12-22T09:19:10;97942.44;;;20.91;63.09
74975;BME280;64061;50.836;19.138;2022-12-22T09:22:14;97948.31;;;20.98;63.15
74975;BME280;64061;50.836;19.138;2022-12-22T09:25:26;97940.09;;;20.98;63.20
74975;BME280;64061;50.836;19.138;2022-12-22T09:28:29;97926.06;;;20.99;63.04
74975;BME280;64061;50.836;19.138;2022-12-22T09:31:44;97902.72;;;21.02;62.78
74975;BME280;64061;50.836;19.138;2022-12-22T09:34:48;97896.94;;;21.04;63.06
74975;BME280;64061;50.836;19.138;2022-12-22T09:37:55;97895.16;;;21.08;62.66
74975;BME280;64061;50.836;19.138;2022-12-22T09:40:58;97885.00;;;21.08;63.00
74975;BME280;64061;50.836;19.138;2022-12-22T09:44:04;97878.09;;;21.11;62.83
74975;BME280;64061;50.836;19.138;2022-12-22T09:47:21;97880.53;;;21.12;62.62
74975;BME280;64061;50.836;19.138;2022-12-22T09:50:30;97873.41;;;21.11;62.71
74975;BME280;64061;50.836;19.138;2022-12-22T09:53:36;97874.75;;;21.14;62.87
74975;BME280;64061;50.836;19.138;2022-12-22T09:56:40;97865.88;;;21.17;62.55
74975;BME280;64061;50.836;19.138;2022-12-22T09:59:45;97858.97;;;21.19;63.00
74975;BME280;64061;50.836;19.138;2022-12-22T10:02:56;97852.88;;;21.22;63.05
74975;BME280;64061;50.836;19.138;2022-12-22T10:06:13;97853.69;;;21.23;63.23
74975;BME280;64061;50.836;19.138;2022-12-22T10:09:23;97851.00;;;21.31;63.32
74975;BME280;64061;50.836;19.138;2022-12-22T10:12:49;97836.47;;;21.31;63.06
74975;BME280;64061;50.836;19.138;2022-12-22T10:15:53;97833.41;;;21.32;62.81
74975;BME280;64061;50.836;19.138;2022-12-22T10:19:07;97805.03;;;21.37;63.10
74975;BME280;64061;50.836;19.138;2022-12-22T10:22:23;97825.56;;;21.40;63.48
74975;BME280;64061;50.836;19.138;2022-12-22T10:25:32;97825.19;;;21.32;63.76
74975;BME280;64061;50.836;19.138;2022-12-22T10:29:00;97816.78;;;21.29;63.77
74975;BME280;64061;50.836;19.138;2022-12-22T10:32:11;97812.59;;;21.31;63.76
74975;BME280;64061;50.836;19.138;2022-12-22T10:35:18;97797.91;;;21.27;63.75
74975;BME280;64061;50.836;19.138;2022-12-22T10:38:24;97809.00;;;21.22;63.77
74975;BME280;64061;50.836;19.138;2022-12-22T10:41:33;97788.28;;;21.16;64.17
74975;BME280;64061;50.836;19.138;2022-12-22T10:44:38;97789.53;;;21.10;64.35
74975;BME280;64061;50.836;19.138;2022-12-22T10:47:50;97787.09;;;21.09;64.02
74975;BME280;64061;50.836;19.138;2022-12-22T10:50:58;97782.22;;;21.06;64.08
74975;BME280;64061;50.836;19.138;2022-12-22T10:54:04;97790.75;;;21.04;64.38
74975;BME280;64061;50.836;19.138;2022-12-22T10:57:24;97769.31;;;21.06;64.41
74975;BME280;64061;50.836;19.138;2022-12-22T11:00:31;97767.34;;;20.98;65.13
74975;BME280;64061;50.836;19.138;2022-12-22T11:03:34;97774.78;;;20.97;64.65
74975;BME280;64061;50.836;19.138;2022-12-22T11:06:40;97769.28;;;20.97;65.51
74975;BME280;64061;50.836;19.138;2022-12-22T11:09:45;97778.44;;;20.93;65.95
74975;BME280;64061;50.836;19.138;2022-12-22T11:13:00;97770.91;;;20.98;66.33
74975;BME280;64061;50.836;19.138;2022-12-22T11:16:20;97777.31;;;20.94;66.75
74975;BME280;64061;50.836;19.138;2022-12-22T11:19:49;97762.19;;;20.96;66.43
74975;BME280;64061;50.836;19.138;2022-12-22T11:23:13;97755.69;;;20.92;66.17
74975;BME280;64061;50.836;19.138;2022-12-22T11:26:35;97753.25;;;20.91;65.57
74975;BME280;64061;50.836;19.138;2022-12-22T11:30:05;97750.22;;;20.92;65.61
74975;BME280;64061;50.836;19.138;2022-12-22T11:33:20;97739.91;;;20.89;65.05
74975;BME280;64061;50.836;19.138;2022-12-22T11:36:52;97740.38;;;20.91;64.46
74975;BME280;64061;50.836;19.138;2022-12-22T11:40:17;97736.03;;;20.90;64.04
74975;BME280;64061;50.836;19.138;2022-12-22T11:43:40;97738.28;;;20.88;64.58
74975;BME280;64061;50.836;19.138;2022-12-22T11:46:58;97743.56;;;20.85;64.45
74975;BME280;64061;50.836;19.138;2022-12-22T11:50:27;97738.59;;;20.87;63.55
74975;BME280;64061;50.836;19.138;2022-12-22T11:54:11;97729.34;;;20.83;63.66
74975;BME280;64061;50.836;19.138;2022-12-22T11:57:36;97731.59;;;20.81;63.77
74975;BME280;64061;50.836;19.138;2022-12-22T12:00:54;97721.44;;;20.81;63.23
74975;BME280;64061;50.836;19.138;2022-12-22T12:04:31;97723.38;;;20.81;62.84
74975;BME280;64061;50.836;19.138;2022-12-22T12:07:53;97719.00;;;20.80;62.91
74975;BME280;64061;50.836;19.138;2022-12-22T12:11:11;97711.28;;;20.82;62.65
74975;BME280;64061;50.836;19.138;2022-12-22T12:14:32;97717.38;;;20.79;62.47
74975;BME280;64061;50.836;19.138;2022-12-22T12:17:50;97721.25;;;20.78;62.63
74975;BME280;64061;50.836;19.138;2022-12-22T12:21:26;97719.66;;;20.77;62.27
74975;BME280;64061;50.836;19.138;2022-12-22T12:24:44;97714.78;;;20.74;62.13
74975;BME280;64061;50.836;19.138;2022-12-22T12:28:09;97712.38;;;20.72;61.37
74975;BME280;64061;50.836;19.138;2022-12-22T12:31:27;97720.91;;;20.71;61.79
74975;BME280;64061;50.836;19.138;2022-12-22T12:34:37;97719.28;;;20.70;61.80
74975;BME280;64061;50.836;19.138;2022-12-22T12:37:49;97702.81;;;20.70;61.57
74975;BME280;64061;50.836;19.138;2022-12-22T12:41:05;97702.53;;;20.71;61.51
74975;BME280;64061;50.836;19.138;2022-12-22T12:44:25;97702.81;;;20.70;61.25
74975;BME280;64061;50.836;19.138;2022-12-22T12:47:35;97698.47;;;20.69;61.26
74975;BME280;64061;50.836;19.138;2022-12-22T12:50:39;97694.91;;;20.68;61.45
74975;BME280;64061;50.836;19.138;2022-12-22T12:57:45;97681.66;;;20.61;61.20
74975;BME280;64061;50.836;19.138;2022-12-22T13:00:50;97675.06;;;20.62;61.21
74975;BME280;64061;50.836;19.138;2022-12-22T13:04:01;97688.78;;;20.62;61.57
74975;BME280;64061;50.836;19.138;2022-12-22T13:07:06;97690.19;;;20.60;60.75
74975;BME280;64061;50.836;19.138;2022-12-22T13:10:17;97680.56;;;20.62;60.58
74975;BME280;64061;50.836;19.138;2022-12-22T13:13:45;97677.81;;;20.62;60.66
74975;BME280;64061;50.836;19.138;2022-12-22T13:17:33;97682.78;;;20.60;60.52
74975;BME280;64061;50.836;19.138;2022-12-22T13:20:52;97681.78;;;20.56;60.73
74975;BME280;64061;50.836;19.138;2022-12-22T13:24:21;97682.41;;;20.53;60.89
74975;BME280;64061;50.836;19.138;2022-12-22T13:27:30;97682.91;;;20.55;60.96
74975;BME280;64061;50.836;19.138;2022-12-22T13:30:34;97685.34;;;20.57;60.82
74975;BME280;64061;50.836;19.138;2022-12-22T13:33:39;97686.97;;;20.58;60.84
74975;BME280;64061;50.836;19.138;2022-12-22T13:36:47;97691.63;;;20.57;60.67
74975;BME280;64061;50.836;19.138;2022-12-22T13:40:11;97693.13;;;20.63;60.43
74975;BME280;64061;50.836;19.138;2022-12-22T13:43:19;97671.63;;;20.57;60.70
74975;BME280;64061;50.836;19.138;2022-12-22T13:46:23;97675.50;;;20.56;60.79
74975;BME280;64061;50.836;19.138;2022-12-22T13:49:30;97673.56;;;20.56;60.61
74975;BME280;64061;50.836;19.138;2022-12-22T13:52:57;97671.13;;;20.55;60.29
74975;BME280;64061;50.836;19.138;2022-12-22T13:56:04;97660.69;;;20.57;60.37
74975;BME280;64061;50.836;19.138;2022-12-22T13:59:17;97653.78;;;20.59;60.34
74975;BME280;64061;50.836;19.138;2022-12-22T14:02:31;97664.53;;;20.56;61.09
74975;BME280;64061;50.836;19.138;2022-12-22T14:05:35;97657.75;;;20.53;59.99
74975;BME280;64061;50.836;19.138;2022-12-22T14:08:40;97659.06;;;20.56;60.56
74975;BME280;64061;50.836;19.138;2022-12-22T14:11:45;97648.09;;;20.56;60.06
74975;BME280;64061;50.836;19.138;2022-12-22T14:14:54;97645.66;;;20.54;60.16
74975;BME280;64061;50.836;19.138;2022-12-22T14:18:00;97645.16;;;20.52;59.78
74975;BME280;64061;50.836;19.138;2022-12-22T14:21:05;97649.53;;;20.53;59.88
74975;BME280;64061;50.836;19.138;2022-12-22T14:24:17;97647.28;;;20.55;59.82
74975;BME280;64061;50.836;19.138;2022-12-22T14:27:30;97647.28;;;20.55;59.72
74975;BME280;64061;50.836;19.138;2022-12-22T14:30:41;97655.00;;;20.53;59.63
74975;BME280;64061;50.836;19.138;2022-12-22T14:33:51;97666.47;;;20.55;59.68
74975;BME280;64061;50.836;19.138;2022-12-22T14:36:56;97660.50;;;20.53;59.72
74975;BME280;64061;50.836;19.138;2022-12-22T14:40:04;97659.88;;;20.56;60.05
74975;BME280;64061;50.836;19.138;2022-12-22T14:43:22;97660.88;;;20.60;59.81
74975;BME280;64061;50.836;19.138;2022-12-22T14:46:30;97643.25;;;20.53;60.05
74975;BME280;64061;50.836;19.138;2022-12-22T14:49:45;97651.16;;;20.54;60.32
74975;BME280;64061;50.836;19.138;2022-12-22T14:52:52;97660.50;;;20.53;60.48
74975;BME280;64061;50.836;19.138;2022-12-22T14:56:00;97661.28;;;20.54;60.46
74975;BME280;64061;50.836;19.138;2022-12-22T14:59:09;97648.41;;;20.54;60.02
74975;BME280;64061;50.836;19.138;2022-12-22T15:02:27;97645.47;;;20.51;60.48
74975;BME280;64061;50.836;19.138;2022-12-22T15:05:40;97637.09;;;20.47;60.30
74975;BME280;64061;50.836;19.138;2022-12-22T15:08:45;97632.44;;;20.48;60.45
74975;BME280;64061;50.836;19.138;2022-12-22T15:11:52;97631.00;;;20.50;60.10
74975;BME280;64061;50.836;19.138;2022-12-22T15:15:00;97631.63;;;20.47;60.22
74975;BME280;64061;50.836;19.138;2022-12-22T15:18:04;97619.53;;;20.48;59.87
74975;BME280;64061;50.836;19.138;2022-12-22T15:21:11;97600.38;;;20.48;60.38
74975;BME280;64061;50.836;19.138;2022-12-22T15:24:17;97626.44;;;20.46;60.81
74975;BME280;64061;50.836;19.138;2022-12-22T15:27:22;97626.44;;;20.46;61.00
74975;BME280;64061;50.836;19.138;2022-12-22T15:30:25;97618.84;;;20.43;61.25
74975;BME280;64061;50.836;19.138;2022-12-22T15:33:29;97616.09;;;20.43;61.19
74975;BME280;64061;50.836;19.138;2022-12-22T15:36:33;97623.53;;;20.42;61.57
74975;BME280;64061;50.836;19.138;2022-12-22T15:39:37;97612.06;;;20.40;61.63
74975;BME280;64061;50.836;19.138;2022-12-22T15:42:43;97612.06;;;20.40;61.75
74975;BME280;64061;50.836;19.138;2022-12-22T15:45:47;97606.09;;;20.38;61.98
74975;BME280;64061;50.836;19.138;2022-12-22T15:48:51;97602.06;;;20.36;61.97
74975;BME280;64061;50.836;19.138;2022-12-22T15:51:56;97605.88;;;20.35;62.08
74975;BME280;64061;50.836;19.138;2022-12-22T15:55:04;97600.72;;;20.33;62.21
74975;BME280;64061;50.836;19.138;2022-12-22T15:58:11;97607.00;;;20.34;62.28
74975;BME280;64061;50.836;19.138;2022-12-22T16:01:17;97605.19;;;20.29;62.08
74975;BME280;64061;50.836;19.138;2022-12-22T16:04:22;97612.28;;;20.30;62.34
74975;BME280;64061;50.836;19.138;2022-12-22T16:07:27;97613.91;;;20.31;62.40
74975;BME280;64061;50.836;19.138;2022-12-22T16:10:33;97605.69;;;20.31;62.22
74975;BME280;64061;50.836;19.138;2022-12-22T16:13:38;97614.72;;;20.32;62.05
74975;BME280;64061;50.836;19.138;2022-12-22T16:16:42;97599.72;;;20.29;62.24
74975;BME280;64061;50.836;19.138;2022-12-22T16:19:48;97593.75;;;20.27;62.80
74975;BME280;64061;50.836;19.138;2022-12-22T16:22:52;97592.13;;;20.26;62.75
74975;BME280;64061;50.836;19.138;2022-12-22T16:25:56;97587.75;;;20.25;62.83
74975;BME280;64061;50.836;19.138;2022-12-22T16:29:08;97598.09;;;20.28;62.97
74975;BME280;64061;50.836;19.138;2022-12-22T16:32:22;97580.84;;;20.27;63.05
74975;BME280;64061;50.836;19.138;2022-12-22T16:35:28;97597.59;;;20.26;63.58
74975;BME280;64061;50.836;19.138;2022-12-22T16:38:34;97600.34;;;20.26;63.83
74975;BME280;64061;50.836;19.138;2022-12-22T16:41:37;97598.72;;;20.25;63.90
74975;BME280;64061;50.836;19.138;2022-12-22T16:44:43;97604.53;;;20.23;63.92
74975;BME280;64061;50.836;19.138;2022-12-22T16:48:05;97603.22;;;20.21;63.67